Time;durP1;ratioP1;P1;durP2;ratioP2;P2;SDS_P1;SDS_P2;PMS_P1;PMS_P2;Temp;Humidity;BMP_temperature;BMP_pressure;BME280_temperature;BME280_humidity;BME280_pressure;Samples;Min_cycle;Max_cycle;Signal;HPM_P1;HPM_P2
2021/03/06 00:00:19;;;;;;;6.13;3.40;;;;;;;;;;5024475;28;20593;-50
2021/03/06 00:02:45;;;;;;;7.73;3.70;;;;;;;;;;5043929;28;20194;-50
2021/03/06 00:05:11;;;;;;;6.80;3.97;;;;;;;;;;5037277;28;20194;-51
2021/03/06 00:07:38;;;;;;;6.83;3.10;;;;;;;;;;5029367;28;20190;-51
2021/03/06 00:10:11;;;;;;;6.10;3.70;;;;;;;;;;5044853;28;20737;-51
2021/03/06 00:12:40;;;;;;;7.07;3.17;;;;;;;;;;5044054;28;20193;-49
2021/03/06 00:15:07;;;;;;;4.43;3.23;;;;;;;;;;5044585;28;20429;-50
2021/03/06 00:17:33;;;;;;;4.83;3.27;;;;;;;;;;5027896;28;20487;-48
2021/03/06 00:19:58;;;;;;;4.60;3.20;;;;;;;;;;5043873;28;20285;-49
2021/03/06 00:22:24;;;;;;;6.67;3.97;;;;;;;;;;5045469;28;20182;-48
2021/03/06 00:24:49;;;;;;;6.10;3.07;;;;;;;;;;5044343;28;20705;-49
2021/03/06 00:27:14;;;;;;;9.50;4.33;;;;;;;;;;5026703;28;20241;-50
2021/03/06 00:29:40;;;;;;;5.53;3.50;;;;;;;;;;5043135;28;20709;-49
2021/03/06 00:32:05;;;;;;;6.80;3.53;;;;;;;;;;5043005;28;20229;-47
2021/03/06 00:34:30;;;;;;;6.77;3.50;;;;;;;;;;5025653;28;20221;-52
2021/03/06 00:36:56;;;;;;;8.17;4.17;;;;;;;;;;5041411;28;20181;-49
2021/03/06 00:39:21;;;;;;;5.93;3.70;;;;;;;;;;5023444;28;20186;-50
2021/03/06 00:41:46;;;;;;;6.17;3.20;;;;;;;;;;5042037;28;20221;-49
2021/03/06 00:44:11;;;;;;;5.93;2.73;;;;;;;;;;5043409;28;20665;-49
2021/03/06 00:46:37;;;;;;;4.23;3.00;;;;;;;;;;5047069;28;20205;-49
2021/03/06 00:49:03;;;;;;;6.23;4.10;;;;;;;;;;5041294;28;20232;-50
2021/03/06 00:51:28;;;;;;;5.40;3.53;;;;;;;;;;5023785;28;20216;-50
2021/03/06 00:53:53;;;;;;;5.87;2.60;;;;;;;;;;5040539;28;20197;-51
2021/03/06 00:56:19;;;;;;;5.83;3.07;;;;;;;;;;5046497;28;20283;-50
2021/03/06 00:58:45;;;;;;;6.50;3.80;;;;;;;;;;5041112;28;20190;-50
2021/03/06 01:01:12;;;;;;;6.40;3.30;;;;;;;;;;5043150;28;20225;-49
2021/03/06 01:03:37;;;;;;;7.23;3.30;;;;;;;;;;5041028;28;20189;-49
2021/03/06 01:06:04;;;;;;;4.13;2.83;;;;;;;;;;5027409;28;20201;-50
2021/03/06 01:08:29;;;;;;;8.07;3.40;;;;;;;;;;5043097;28;20213;-50
2021/03/06 01:10:55;;;;;;;9.20;3.83;;;;;;;;;;5043133;28;20642;-48
2021/03/06 01:13:21;;;;;;;4.63;2.73;;;;;;;;;;5034030;28;20191;-49
2021/03/06 01:15:47;;;;;;;5.23;3.03;;;;;;;;;;5044874;28;20197;-56
2021/03/06 01:18:12;;;;;;;5.83;2.93;;;;;;;;;;5037305;28;20203;-55
2021/03/06 01:20:38;;;;;;;7.50;3.50;;;;;;;;;;5028092;28;20205;-49
2021/03/06 01:23:04;;;;;;;4.90;3.00;;;;;;;;;;5030427;28;20194;-49
2021/03/06 01:25:29;;;;;;;5.67;3.30;;;;;;;;;;5044468;28;20200;-51
2021/03/06 01:27:55;;;;;;;6.37;3.33;;;;;;;;;;5045033;28;20194;-49
2021/03/06 01:30:22;;;;;;;6.47;3.50;;;;;;;;;;5043037;28;20217;-49
2021/03/06 01:32:47;;;;;;;4.60;2.80;;;;;;;;;;5045077;28;20198;-48
2021/03/06 01:35:13;;;;;;;5.40;3.00;;;;;;;;;;5048719;28;20217;-53
2021/03/06 01:37:39;;;;;;;4.90;2.90;;;;;;;;;;5028699;28;20696;-48
2021/03/06 01:40:06;;;;;;;8.03;3.47;;;;;;;;;;5047222;28;20301;-50
2021/03/06 01:42:32;;;;;;;7.77;3.60;;;;;;;;;;5045161;28;20647;-48
2021/03/06 01:44:57;;;;;;;8.10;3.23;;;;;;;;;;5039960;28;20185;-54
2021/03/06 01:47:22;;;;;;;4.97;3.10;;;;;;;;;;5046775;28;20241;-47
2021/03/06 01:49:47;;;;;;;3.50;2.60;;;;;;;;;;5042937;28;20207;-50
2021/03/06 01:52:14;;;;;;;7.93;2.93;;;;;;;;;;5042997;28;20720;-52
2021/03/06 01:54:40;;;;;;;3.50;2.40;;;;;;;;;;5057120;28;20187;-50
2021/03/06 01:57:05;;;;;;;5.07;2.50;;;;;;;;;;5027580;28;20231;-49
2021/03/06 01:59:31;;;;;;;4.33;2.97;;;;;;;;;;5044012;28;22080;-50
2021/03/06 02:01:56;;;;;;;3.63;2.60;;;;;;;;;;5044444;28;20586;-49
2021/03/06 02:04:22;;;;;;;9.90;2.70;;;;;;;;;;5050512;28;20216;-50
2021/03/06 02:06:47;;;;;;;3.90;2.40;;;;;;;;;;5049052;28;20198;-50
2021/03/06 02:09:13;;;;;;;3.90;2.60;;;;;;;;;;5026924;28;20217;-47
2021/03/06 02:11:49;;;;;;;3.73;2.77;;;;;;;;;;5043571;28;20209;-48
2021/03/06 02:14:39;;;;;;;5.93;2.50;;;;;;;;;;5045663;28;20201;-50
2021/03/06 02:17:12;;;;;;;10.60;2.70;;;;;;;;;;5028833;28;20195;-53
2021/03/06 02:20:06;;;;;;;3.50;2.33;;;;;;;;;;5027647;28;20259;-52
2021/03/06 02:22:58;;;;;;;3.50;2.53;;;;;;;;;;5044090;28;20201;-47
2021/03/06 02:25:42;;;;;;;6.33;3.23;;;;;;;;;;5040758;28;20193;-52
2021/03/06 02:28:45;;;;;;;4.43;2.87;;;;;;;;;;5046047;28;20186;-49
2021/03/06 02:31:14;;;;;;;4.10;2.67;;;;;;;;;;5046949;28;20209;-48
2021/03/06 02:33:43;;;;;;;5.93;2.47;;;;;;;;;;5047506;28;20646;-50
2021/03/06 02:36:12;;;;;;;3.70;2.40;;;;;;;;;;5028592;28;20202;-49
2021/03/06 02:38:40;;;;;;;4.27;1.97;;;;;;;;;;5024689;28;20197;-48
2021/03/06 02:41:06;;;;;;;2.33;1.77;;;;;;;;;;5037335;28;20562;-50
2021/03/06 02:43:33;;;;;;;3.70;2.20;;;;;;;;;;5044528;28;20197;-48
2021/03/06 02:45:59;;;;;;;5.00;2.37;;;;;;;;;;5047471;28;20689;-51
2021/03/06 02:48:24;;;;;;;3.33;2.40;;;;;;;;;;5043105;28;20306;-49
2021/03/06 02:50:54;;;;;;;3.93;2.43;;;;;;;;;;5044171;28;20258;-47
2021/03/06 02:53:20;;;;;;;4.87;2.70;;;;;;;;;;5040729;28;20213;-49
2021/03/06 02:55:45;;;;;;;3.80;2.37;;;;;;;;;;5048350;28;20308;-48
2021/03/06 02:58:23;;;;;;;3.70;2.47;;;;;;;;;;5026165;28;20678;-49
2021/03/06 03:01:01;;;;;;;2.57;2.10;;;;;;;;;;5046598;28;20224;-50
2021/03/06 03:03:42;;;;;;;3.00;2.47;;;;;;;;;;5044669;28;20804;-49
2021/03/06 03:06:14;;;;;;;3.97;2.67;;;;;;;;;;5040911;28;20230;-51
2021/03/06 03:08:59;;;;;;;4.00;1.77;;;;;;;;;;5043419;28;20292;-50
2021/03/06 03:11:31;;;;;;;2.60;1.80;;;;;;;;;;5047464;28;20206;-48
2021/03/06 03:13:59;;;;;;;2.90;1.50;;;;;;;;;;5021750;28;20194;-52
2021/03/06 03:16:31;;;;;;;2.30;1.60;;;;;;;;;;5044392;28;20190;-48
2021/03/06 03:19:02;;;;;;;3.00;2.00;;;;;;;;;;5040355;28;20217;-52
2021/03/06 03:21:30;;;;;;;4.53;2.17;;;;;;;;;;5046628;28;20210;-49
2021/03/06 03:24:03;;;;;;;3.97;2.27;;;;;;;;;;5044546;28;20218;-48
2021/03/06 03:26:29;;;;;;;4.50;2.40;;;;;;;;;;5037667;28;20185;-48
2021/03/06 03:28:56;;;;;;;3.40;2.40;;;;;;;;;;5028994;28;20191;-50
2021/03/06 03:31:24;;;;;;;3.47;2.20;;;;;;;;;;5035985;28;20233;-50
2021/03/06 03:33:49;;;;;;;4.67;2.43;;;;;;;;;;5068371;22;20624;-49
2021/03/06 03:36:16;;;;;;;4.80;2.13;;;;;;;;;;5025883;28;20282;-47
2021/03/06 03:38:44;;;;;;;3.27;2.17;;;;;;;;;;5029507;28;20187;-47
2021/03/06 03:41:11;;;;;;;4.87;2.37;;;;;;;;;;5035301;28;20546;-47
2021/03/06 03:43:37;;;;;;;3.03;1.87;;;;;;;;;;5031650;28;20466;-46
2021/03/06 03:46:04;;;;;;;4.27;2.13;;;;;;;;;;5053546;28;20229;-46
2021/03/06 03:48:29;;;;;;;2.87;2.00;;;;;;;;;;5056963;28;20818;-48
2021/03/06 03:50:55;;;;;;;2.67;1.77;;;;;;;;;;5055831;28;20213;-46
2021/03/06 03:53:21;;;;;;;2.77;2.20;;;;;;;;;;5051270;28;20608;-45
2021/03/06 03:55:46;;;;;;;4.47;2.00;;;;;;;;;;5052816;28;20214;-46
2021/03/06 03:58:12;;;;;;;1.23;0.70;;;;;;;;;;5050453;28;20874;-47
2021/03/06 04:00:40;;;;;;;3.23;1.80;;;;;;;;;;5047851;28;20386;-46
2021/03/06 04:03:07;;;;;;;1.47;1.37;;;;;;;;;;5049345;28;20201;-46
2021/03/06 04:05:35;;;;;;;1.93;1.40;;;;;;;;;;5050619;28;20573;-46
2021/03/06 04:08:01;;;;;;;4.10;2.00;;;;;;;;;;5052776;28;20201;-46
2021/03/06 04:10:27;;;;;;;4.80;2.00;;;;;;;;;;5053088;28;20799;-46
2021/03/06 04:12:55;;;;;;;3.53;2.10;;;;;;;;;;5034509;28;20197;-45
2021/03/06 04:15:23;;;;;;;4.70;2.17;;;;;;;;;;5030281;28;20312;-46
2021/03/06 04:17:49;;;;;;;2.73;1.90;;;;;;;;;;5054854;28;20197;-45
2021/03/06 04:20:17;;;;;;;2.30;1.83;;;;;;;;;;5042762;28;20185;-47
2021/03/06 04:22:42;;;;;;;5.33;2.00;;;;;;;;;;5053932;28;20232;-45
2021/03/06 04:25:09;;;;;;;5.90;2.73;;;;;;;;;;5050591;28;20214;-46
2021/03/06 04:27:34;;;;;;;7.03;2.10;;;;;;;;;;5053806;28;20197;-46
2021/03/06 04:30:00;;;;;;;3.47;2.30;;;;;;;;;;5055472;28;20205;-47
2021/03/06 04:32:26;;;;;;;4.37;2.00;;;;;;;;;;5051301;28;20189;-45
2021/03/06 04:34:51;;;;;;;4.63;2.13;;;;;;;;;;5051554;28;20643;-46
2021/03/06 04:37:16;;;;;;;4.03;1.97;;;;;;;;;;5051519;28;20240;-46
2021/03/06 04:39:42;;;;;;;2.97;1.90;;;;;;;;;;5056445;28;20185;-45
2021/03/06 04:42:07;;;;;;;4.43;2.00;;;;;;;;;;5052082;28;20259;-46
2021/03/06 04:44:33;;;;;;;2.13;1.57;;;;;;;;;;5050672;28;20678;-46
2021/03/06 04:46:58;;;;;;;5.77;2.23;;;;;;;;;;5052854;28;20632;-47
2021/03/06 04:49:26;;;;;;;4.83;2.30;;;;;;;;;;5053453;28;20218;-48
2021/03/06 04:51:52;;;;;;;6.03;2.13;;;;;;;;;;5050675;28;20185;-46
2021/03/06 04:54:17;;;;;;;2.73;1.93;;;;;;;;;;5049501;28;20483;-46
2021/03/06 04:56:43;;;;;;;3.00;1.73;;;;;;;;;;5053538;28;20692;-44
2021/03/06 04:59:08;;;;;;;1.73;1.63;;;;;;;;;;5053703;28;20374;-46
2021/03/06 05:01:33;;;;;;;5.27;1.90;;;;;;;;;;5052077;28;20182;-45
2021/03/06 05:03:59;;;;;;;4.00;2.60;;;;;;;;;;5049532;28;20198;-48
2021/03/06 05:06:24;;;;;;;5.93;1.80;;;;;;;;;;5055304;28;20243;-47
2021/03/06 05:08:49;;;;;;;4.23;1.77;;;;;;;;;;5059504;28;20185;-44
2021/03/06 05:11:15;;;;;;;4.27;1.77;;;;;;;;;;5058352;28;20197;-46
2021/03/06 05:13:40;;;;;;;6.00;2.33;;;;;;;;;;5053979;28;20177;-46
2021/03/06 05:16:06;;;;;;;9.03;2.07;;;;;;;;;;5058626;28;20617;-46
2021/03/06 05:18:32;;;;;;;2.43;2.10;;;;;;;;;;5058886;28;20193;-46
2021/03/06 05:20:58;;;;;;;4.27;2.40;;;;;;;;;;5055012;28;20188;-45
2021/03/06 05:23:24;;;;;;;4.57;2.50;;;;;;;;;;5052506;28;20186;-48
2021/03/06 05:25:52;;;;;;;6.73;2.10;;;;;;;;;;5059058;28;20209;-46
2021/03/06 05:28:22;;;;;;;4.17;2.00;;;;;;;;;;5063139;28;20190;-50
2021/03/06 05:30:48;;;;;;;6.50;2.27;;;;;;;;;;5053439;28;20202;-45
2021/03/06 05:33:14;;;;;;;8.30;1.80;;;;;;;;;;5050346;28;20185;-46
2021/03/06 05:35:39;;;;;;;3.00;1.93;;;;;;;;;;5052829;28;20705;-45
2021/03/06 05:38:05;;;;;;;5.23;2.23;;;;;;;;;;5057255;28;20178;-45
2021/03/06 05:40:36;;;;;;;3.70;1.80;;;;;;;;;;5056857;28;20182;-47
2021/03/06 05:43:02;;;;;;;4.37;2.03;;;;;;;;;;5049735;28;20188;-45
2021/03/06 05:45:28;;;;;;;3.03;2.03;;;;;;;;;;5064658;28;20206;-45
2021/03/06 05:47:54;;;;;;;3.03;1.90;;;;;;;;;;5064748;28;20672;-46
2021/03/06 05:50:20;;;;;;;3.57;2.23;;;;;;;;;;5057265;28;20464;-47
2021/03/06 05:52:46;;;;;;;4.57;2.10;;;;;;;;;;5048054;28;20646;-46
2021/03/06 05:55:16;;;;;;;4.57;2.20;;;;;;;;;;5050487;28;20217;-46
2021/03/06 05:57:42;;;;;;;4.73;2.10;;;;;;;;;;5057038;28;20222;-45
2021/03/06 06:00:08;;;;;;;4.27;2.50;;;;;;;;;;5058438;28;20669;-51
2021/03/06 06:02:34;;;;;;;4.60;1.90;;;;;;;;;;5050125;28;20182;-46
2021/03/06 06:05:00;;;;;;;4.23;2.00;;;;;;;;;;5057499;28;20209;-47
2021/03/06 06:07:26;;;;;;;5.20;2.10;;;;;;;;;;5061539;28;20198;-46
2021/03/06 06:09:52;;;;;;;4.47;1.93;;;;;;;;;;5058542;28;20209;-46
2021/03/06 06:12:17;;;;;;;7.23;1.60;;;;;;;;;;5050557;28;20186;-47
2021/03/06 06:14:43;;;;;;;5.43;1.87;;;;;;;;;;5054584;28;20297;-47
2021/03/06 06:17:10;;;;;;;2.27;1.80;;;;;;;;;;5056905;28;20277;-45
2021/03/06 06:19:37;;;;;;;3.07;1.80;;;;;;;;;;5058817;28;20177;-47
2021/03/06 06:22:16;;;;;;;2.73;1.73;;;;;;;;;;5051066;28;20185;-46
2021/03/06 06:24:46;;;;;;;3.83;1.73;;;;;;;;;;5051102;28;20209;-46
2021/03/06 06:27:20;;;;;;;3.63;1.90;;;;;;;;;;5059205;28;20178;-46
2021/03/06 06:29:51;;;;;;;2.13;1.50;;;;;;;;;;5055929;28;20198;-47
2021/03/06 06:32:21;;;;;;;4.37;1.57;;;;;;;;;;5056887;28;20554;-46
2021/03/06 06:34:59;;;;;;;4.97;2.13;;;;;;;;;;5050580;28;20216;-45
2021/03/06 06:37:25;;;;;;;3.07;1.70;;;;;;;;;;5047111;28;20269;-46
2021/03/06 06:39:51;;;;;;;3.67;2.10;;;;;;;;;;5051979;28;20273;-48
2021/03/06 06:42:16;;;;;;;3.37;1.93;;;;;;;;;;5056539;28;20186;-46
2021/03/06 06:44:56;;;;;;;3.90;2.00;;;;;;;;;;5049836;28;20264;-46
2021/03/06 06:47:22;;;;;;;4.33;2.10;;;;;;;;;;5049411;28;20235;-47
2021/03/06 06:49:49;;;;;;;5.43;1.90;;;;;;;;;;5052396;28;20582;-46
2021/03/06 06:52:17;;;;;;;8.50;2.20;;;;;;;;;;5058828;28;20185;-47
2021/03/06 06:55:03;;;;;;;5.77;2.27;;;;;;;;;;5050383;28;20255;-46
2021/03/06 06:57:29;;;;;;;3.40;1.60;;;;;;;;;;5046781;28;20206;-46
2021/03/06 07:00:08;;;;;;;3.00;2.00;;;;;;;;;;5054424;28;20246;-49
2021/03/06 07:02:34;;;;;;;5.93;2.30;;;;;;;;;;5056061;28;20281;-46
2021/03/06 07:05:01;;;;;;;6.77;2.37;;;;;;;;;;5056700;28;20268;-47
2021/03/06 07:07:37;;;;;;;3.80;2.37;;;;;;;;;;5049148;28;20193;-48
2021/03/06 07:10:14;;;;;;;4.20;2.03;;;;;;;;;;5049325;28;20288;-49
2021/03/06 07:12:45;;;;;;;6.20;2.33;;;;;;;;;;5056090;28;20287;-47
2021/03/06 07:15:12;;;;;;;5.93;2.10;;;;;;;;;;5056136;28;20723;-45
2021/03/06 07:17:39;;;;;;;3.47;2.00;;;;;;;;;;5054851;28;20193;-47
2021/03/06 07:20:29;;;;;;;8.33;2.77;;;;;;;;;;5048431;28;20190;-47
2021/03/06 07:23:10;;;;;;;4.80;2.00;;;;;;;;;;5043229;28;20182;-46
2021/03/06 07:25:35;;;;;;;5.17;2.37;;;;;;;;;;5062213;28;20209;-47
2021/03/06 07:28:01;;;;;;;4.73;2.33;;;;;;;;;;5056758;28;20181;-45
2021/03/06 07:30:26;;;;;;;3.13;1.73;;;;;;;;;;5060783;28;20237;-46
2021/03/06 07:32:55;;;;;;;8.00;2.60;;;;;;;;;;5045607;28;20269;-46
2021/03/06 07:35:22;;;;;;;4.13;2.13;;;;;;;;;;5047927;28;20297;-45
2021/03/06 07:37:50;;;;;;;7.10;2.63;;;;;;;;;;5048674;28;20552;-47
2021/03/06 07:40:16;;;;;;;4.30;2.00;;;;;;;;;;5028517;28;20224;-50
2021/03/06 07:42:48;;;;;;;3.77;1.93;;;;;;;;;;5042234;28;20190;-46
2021/03/06 07:45:21;;;;;;;4.93;2.30;;;;;;;;;;5036760;28;20670;-46
2021/03/06 07:48:00;;;;;;;4.90;1.90;;;;;;;;;;5043099;28;20229;-48
2021/03/06 07:50:28;;;;;;;3.77;1.93;;;;;;;;;;5045667;28;20217;-47
2021/03/06 07:52:55;;;;;;;5.73;2.23;;;;;;;;;;5042332;28;20263;-49
2021/03/06 07:55:22;;;;;;;3.87;2.37;;;;;;;;;;5043496;28;20255;-46
2021/03/06 07:58:10;;;;;;;5.47;2.70;;;;;;;;;;5043927;28;20335;-45
2021/03/06 08:00:50;;;;;;;8.53;2.60;;;;;;;;;;5060665;28;20189;-46
2021/03/06 08:03:27;;;;;;;4.33;2.27;;;;;;;;;;5042565;28;20253;-46
2021/03/06 08:05:56;;;;;;;11.67;2.80;;;;;;;;;;5045691;28;20201;-46
2021/03/06 08:08:31;;;;;;;8.30;3.03;;;;;;;;;;5041520;28;20216;-47
2021/03/06 08:11:09;;;;;;;7.23;2.50;;;;;;;;;;5043505;28;20331;-47
2021/03/06 08:13:38;;;;;;;4.40;2.43;;;;;;;;;;5045310;28;20199;-46
2021/03/06 08:16:22;;;;;;;4.87;2.40;;;;;;;;;;5043900;28;20206;-47
2021/03/06 08:18:50;;;;;;;7.80;2.20;;;;;;;;;;5045103;28;20659;-45
2021/03/06 08:21:39;;;;;;;4.37;2.33;;;;;;;;;;5051061;28;20182;-48
2021/03/06 08:24:18;;;;;;;6.57;1.70;;;;;;;;;;5052886;28;20477;-47
2021/03/06 08:26:54;;;;;;;6.10;1.90;;;;;;;;;;5043695;28;20189;-47
2021/03/06 08:29:22;;;;;;;9.43;2.30;;;;;;;;;;5040896;28;20247;-48
2021/03/06 08:32:01;;;;;;;7.47;2.20;;;;;;;;;;5042257;28;20604;-47
2021/03/06 08:34:30;;;;;;;6.33;2.10;;;;;;;;;;5042952;28;20292;-48
2021/03/06 08:37:20;;;;;;;8.53;2.10;;;;;;;;;;5042717;28;20273;-46
2021/03/06 08:40:04;;;;;;;5.53;2.30;;;;;;;;;;5042395;28;20190;-48
2021/03/06 08:42:46;;;;;;;4.07;2.03;;;;;;;;;;5043527;28;20240;-46
2021/03/06 08:45:21;;;;;;;7.23;2.43;;;;;;;;;;5043309;28;20213;-49
2021/03/06 08:47:52;;;;;;;5.43;2.23;;;;;;;;;;5044175;28;20181;-50
2021/03/06 08:50:19;;;;;;;7.23;2.90;;;;;;;;;;5056658;28;20205;-47
2021/03/06 08:53:05;;;;;;;10.07;2.63;;;;;;;;;;5042497;28;20611;-46
2021/03/06 08:55:33;;;;;;;6.77;3.13;;;;;;;;;;5041890;28;20205;-46
2021/03/06 08:58:06;;;;;;;6.50;4.23;;;;;;;;;;5044293;28;20209;-46
2021/03/06 09:00:31;;;;;;;5.97;3.60;;;;;;;;;;5043645;28;20186;-47
2021/03/06 09:03:08;;;;;;;5.40;3.33;;;;;;;;;;5041858;28;20708;-50
2021/03/06 09:05:33;;;;;;;4.67;2.70;;;;;;;;;;5039944;28;21670;-51
2021/03/06 09:07:59;;;;;;;7.37;2.87;;;;;;;;;;5032601;28;20190;-48
2021/03/06 09:10:29;;;;;;;5.30;2.50;;;;;;;;;;5042323;28;20217;-45
2021/03/06 09:13:00;;;;;;;9.20;3.20;;;;;;;;;;5045304;28;20198;-48
2021/03/06 09:15:36;;;;;;;6.57;2.80;;;;;;;;;;5040887;28;20213;-48
2021/03/06 09:18:04;;;;;;;5.33;2.47;;;;;;;;;;5038135;28;20181;-47
2021/03/06 09:20:31;;;;;;;6.73;3.37;;;;;;;;;;5041082;28;20670;-47
2021/03/06 09:22:56;;;;;;;7.40;3.50;;;;;;;;;;5040380;28;20192;-47
2021/03/06 09:25:35;;;;;;;7.27;3.50;;;;;;;;;;5038927;28;20210;-48
2021/03/06 09:28:03;;;;;;;5.87;3.20;;;;;;;;;;5042294;28;20193;-46
2021/03/06 09:30:36;;;;;;;8.53;3.50;;;;;;;;;;5036923;28;20768;-49
2021/03/06 09:33:02;;;;;;;3.83;2.00;;;;;;;;;;5039708;28;20289;-49
2021/03/06 09:35:28;;;;;;;4.50;2.00;;;;;;;;;;5061637;22;20221;-53
2021/03/06 09:38:11;;;;;;;4.87;2.87;;;;;;;;;;5046252;28;20197;-53
2021/03/06 09:40:44;;;;;;;11.27;3.17;;;;;;;;;;5037321;28;20193;-54
2021/03/06 09:43:15;;;;;;;6.40;2.30;;;;;;;;;;5057719;28;20197;-50
2021/03/06 09:45:41;;;;;;;5.20;1.90;;;;;;;;;;5054419;28;20604;-50
2021/03/06 09:48:16;;;;;;;5.17;2.33;;;;;;;;;;5053575;28;20244;-54
2021/03/06 09:50:44;;;;;;;5.63;2.23;;;;;;;;;;5037346;28;20217;-50
2021/03/06 09:53:21;;;;;;;10.10;2.60;;;;;;;;;;5054615;28;20205;-56
2021/03/06 09:55:47;;;;;;;7.90;2.83;;;;;;;;;;5061356;28;20410;-53
2021/03/06 09:58:21;;;;;;;7.03;3.27;;;;;;;;;;5061971;28;20769;-51
2021/03/06 10:00:47;;;;;;;7.87;3.90;;;;;;;;;;5057988;28;20197;-52
2021/03/06 10:03:26;;;;;;;4.90;3.13;;;;;;;;;;5056150;28;20201;-52
2021/03/06 10:05:54;;;;;;;6.93;3.20;;;;;;;;;;5056267;28;20264;-50
2021/03/06 10:08:20;;;;;;;6.77;2.93;;;;;;;;;;5042945;28;20364;-52
2021/03/06 10:10:47;;;;;;;5.97;2.87;;;;;;;;;;5055608;28;20313;-50
2021/03/06 10:13:16;;;;;;;7.17;2.87;;;;;;;;;;5042127;28;20193;-52
2021/03/06 10:15:42;;;;;;;7.83;3.03;;;;;;;;;;5062178;28;20682;-52
2021/03/06 10:18:08;;;;;;;6.30;3.17;;;;;;;;;;5060663;28;20192;-50
2021/03/06 10:20:34;;;;;;;4.87;2.20;;;;;;;;;;5058472;28;20567;-51
2021/03/06 10:22:59;;;;;;;5.03;2.17;;;;;;;;;;5056319;28;20268;-56
2021/03/06 10:25:27;;;;;;;3.67;1.60;;;;;;;;;;5045347;28;20300;-51
2021/03/06 10:27:53;;;;;;;7.20;2.00;;;;;;;;;;5061875;28;20258;-55
2021/03/06 10:30:29;;;;;;;6.40;1.60;;;;;;;;;;5059856;28;20637;-54
2021/03/06 10:33:03;;;;;;;3.53;1.30;;;;;;;;;;5053870;28;20185;-54
2021/03/06 10:35:41;;;;;;;4.40;1.53;;;;;;;;;;5062041;28;20241;-48
2021/03/06 10:38:24;;;;;;;6.83;1.40;;;;;;;;;;5039789;28;20193;-53
2021/03/06 10:40:59;;;;;;;3.67;1.40;;;;;;;;;;5055109;28;20193;-52
2021/03/06 10:43:29;;;;;;;7.77;1.60;;;;;;;;;;5055045;28;20194;-56
2021/03/06 10:45:55;;;;;;;1.97;1.20;;;;;;;;;;5060932;28;20292;-52
2021/03/06 10:48:30;;;;;;;3.43;1.40;;;;;;;;;;5043749;28;20201;-49
2021/03/06 10:50:57;;;;;;;3.03;1.20;;;;;;;;;;5058957;28;20227;-50
2021/03/06 10:53:24;;;;;;;4.30;1.40;;;;;;;;;;5042614;28;20204;-54
2021/03/06 10:55:51;;;;;;;2.13;1.43;;;;;;;;;;5057335;28;20807;-51
2021/03/06 10:58:17;;;;;;;5.97;1.90;;;;;;;;;;5054202;28;20433;-49
2021/03/06 11:00:45;;;;;;;4.83;1.60;;;;;;;;;;5058560;28;20196;-52
2021/03/06 11:03:12;;;;;;;4.27;1.80;;;;;;;;;;5056439;28;20587;-50
2021/03/06 11:05:40;;;;;;;4.40;1.37;;;;;;;;;;5036205;28;20190;-53
2021/03/06 11:08:19;;;;;;;5.17;1.70;;;;;;;;;;5056412;28;20205;-53
2021/03/06 11:10:52;;;;;;;3.80;1.60;;;;;;;;;;5059481;28;20619;-50
2021/03/06 11:13:18;;;;;;;2.90;1.50;;;;;;;;;;5061384;28;20221;-55
2021/03/06 11:15:50;;;;;;;3.87;1.80;;;;;;;;;;5060486;28;20549;-48
2021/03/06 11:18:16;;;;;;;7.33;2.40;;;;;;;;;;5058651;28;20191;-49
2021/03/06 11:20:42;;;;;;;5.67;1.60;;;;;;;;;;5053280;28;20193;-53
2021/03/06 11:23:07;;;;;;;7.27;2.07;;;;;;;;;;5057457;28;20230;-50
2021/03/06 11:25:33;;;;;;;7.23;2.30;;;;;;;;;;5061283;28;20230;-52
2021/03/06 11:28:05;;;;;;;5.87;2.20;;;;;;;;;;5021258;28;20190;-53
2021/03/06 11:30:33;;;;;;;3.83;1.50;;;;;;;;;;5060413;28;20213;-52
2021/03/06 11:33:00;;;;;;;3.60;1.80;;;;;;;;;;5040196;28;20189;-48
2021/03/06 11:35:26;;;;;;;4.87;2.00;;;;;;;;;;5051017;28;20624;-51
2021/03/06 11:37:52;;;;;;;5.20;2.23;;;;;;;;;;5032402;28;20301;-50
2021/03/06 11:40:26;;;;;;;3.83;1.70;;;;;;;;;;5038297;28;20444;-48
2021/03/06 11:42:52;;;;;;;4.53;1.90;;;;;;;;;;5035317;28;20197;-52
2021/03/06 11:45:18;;;;;;;4.47;1.57;;;;;;;;;;5034578;28;20218;-56
2021/03/06 11:47:46;;;;;;;3.57;1.67;;;;;;;;;;5038120;28;20261;-50
2021/03/06 11:50:14;;;;;;;3.03;1.63;;;;;;;;;;5036373;28;20207;-52
2021/03/06 11:52:39;;;;;;;3.17;1.83;;;;;;;;;;5031163;28;20185;-54
2021/03/06 11:55:06;;;;;;;3.80;1.47;;;;;;;;;;5043241;28;20581;-50
2021/03/06 11:57:32;;;;;;;3.03;1.40;;;;;;;;;;5039664;28;20202;-49
2021/03/06 11:59:57;;;;;;;5.67;1.60;;;;;;;;;;5025687;28;20202;-52
2021/03/06 12:02:22;;;;;;;2.17;1.63;;;;;;;;;;5043560;28;20217;-51
2021/03/06 12:04:48;;;;;;;3.87;2.10;;;;;;;;;;5034148;28;20210;-52
2021/03/06 12:07:13;;;;;;;3.23;1.80;;;;;;;;;;5038666;28;20206;-49
2021/03/06 12:09:39;;;;;;;3.97;1.73;;;;;;;;;;5024450;28;20259;-51
2021/03/06 12:12:05;;;;;;;5.10;2.23;;;;;;;;;;5032808;28;20197;-53
2021/03/06 12:14:31;;;;;;;3.80;2.10;;;;;;;;;;5038366;28;20199;-51
2021/03/06 12:16:56;;;;;;;5.27;2.93;;;;;;;;;;5039225;28;20197;-52
2021/03/06 12:19:21;;;;;;;4.93;2.83;;;;;;;;;;5041436;28;20189;-54
2021/03/06 12:21:47;;;;;;;4.60;3.88;;;;;;;;;;5037921;28;20186;-51
2021/03/06 12:24:12;;;;;;;6.20;5.60;;;;;;;;;;5041033;28;20225;-52
2021/03/06 12:26:37;;;;;;;10.20;9.20;;;;;;;;;;5040046;28;20554;-52
2021/03/06 12:29:03;;;;;;;7.15;5.47;;;;;;;;;;5041298;28;20289;-50
2021/03/06 12:31:28;;;;;;;5.07;3.92;;;;;;;;;;5038290;28;20210;-54
2021/03/06 12:33:53;;;;;;;6.40;3.40;;;;;;;;;;5032566;28;20193;-50
2021/03/06 12:36:19;;;;;;;6.07;2.97;;;;;;;;;;5040175;28;20226;-50
2021/03/06 12:38:45;;;;;;;8.37;5.80;;;;;;;;;;5036165;28;20669;-56
2021/03/06 12:41:10;;;;;;;7.43;4.60;;;;;;;;;;5041294;28;20200;-50
2021/03/06 12:43:35;;;;;;;8.20;5.33;;;;;;;;;;5042901;28;20331;-50
2021/03/06 12:46:01;;;;;;;8.17;4.80;;;;;;;;;;5036167;28;20241;-50
2021/03/06 12:48:26;;;;;;;5.73;3.00;;;;;;;;;;5034731;28;20221;-51
2021/03/06 12:50:53;;;;;;;4.30;2.87;;;;;;;;;;5026576;28;20689;-56
2021/03/06 12:53:19;;;;;;;5.97;3.20;;;;;;;;;;5046801;28;20190;-51
2021/03/06 12:55:46;;;;;;;5.57;3.00;;;;;;;;;;5016821;28;20217;-49
2021/03/06 12:58:14;;;;;;;5.53;2.90;;;;;;;;;;5040475;28;20205;-54
2021/03/06 13:00:39;;;;;;;6.60;3.40;;;;;;;;;;5036969;28;20193;-52
2021/03/06 13:03:05;;;;;;;2.77;2.17;;;;;;;;;;5043367;28;20193;-52
2021/03/06 13:05:31;;;;;;;4.67;2.57;;;;;;;;;;5032179;28;20209;-54
2021/03/06 13:07:56;;;;;;;5.13;3.77;;;;;;;;;;5031351;28;20193;-51
2021/03/06 13:10:22;;;;;;;6.93;2.43;;;;;;;;;;5036453;28;20206;-50
2021/03/06 13:12:47;;;;;;;4.03;2.70;;;;;;;;;;5034751;28;20267;-52
2021/03/06 13:15:16;;;;;;;3.60;2.80;;;;;;;;;;5019643;28;20887;-51
2021/03/06 13:17:45;;;;;;;6.23;4.27;;;;;;;;;;5034234;28;20190;-52
2021/03/06 13:20:12;;;;;;;5.60;3.97;;;;;;;;;;5037168;28;20643;-52
2021/03/06 13:22:37;;;;;;;7.07;3.77;;;;;;;;;;5035094;28;20755;-50
2021/03/06 13:25:04;;;;;;;5.90;3.10;;;;;;;;;;5036486;28;20258;-49
2021/03/06 13:27:30;;;;;;;6.50;3.00;;;;;;;;;;5040627;28;20714;-52
2021/03/06 13:29:55;;;;;;;5.60;2.50;;;;;;;;;;5042581;28;20221;-52
2021/03/06 13:32:20;;;;;;;2.80;2.20;;;;;;;;;;5045595;28;20194;-53
2021/03/06 13:34:45;;;;;;;4.00;1.90;;;;;;;;;;5044524;28;20756;-51
2021/03/06 13:37:11;;;;;;;3.27;1.47;;;;;;;;;;5037664;28;20842;-51
2021/03/06 13:39:36;;;;;;;2.00;1.47;;;;;;;;;;5043273;28;20273;-53
2021/03/06 13:42:01;;;;;;;5.70;1.60;;;;;;;;;;5041004;28;20194;-51
2021/03/06 13:44:27;;;;;;;2.17;1.30;;;;;;;;;;5025712;28;20221;-51
2021/03/06 13:46:52;;;;;;;1.37;1.27;;;;;;;;;;5046742;28;20194;-55
2021/03/06 13:49:17;;;;;;;1.53;1.20;;;;;;;;;;5042584;28;20213;-52
2021/03/06 13:51:43;;;;;;;4.20;1.70;;;;;;;;;;5042861;28;20217;-54
2021/03/06 13:54:08;;;;;;;1.90;1.10;;;;;;;;;;5031140;28;20206;-49
2021/03/06 13:56:33;;;;;;;1.67;1.13;;;;;;;;;;5038297;28;20685;-54
2021/03/06 13:58:58;;;;;;;4.20;1.23;;;;;;;;;;5035636;28;20218;-51
2021/03/06 14:01:24;;;;;;;3.57;1.50;;;;;;;;;;5037889;28;20239;-49
2021/03/06 14:03:49;;;;;;;3.20;1.30;;;;;;;;;;5047985;28;20255;-52
2021/03/06 14:06:17;;;;;;;1.93;1.60;;;;;;;;;;5039088;28;20217;-50
2021/03/06 14:08:42;;;;;;;3.83;1.80;;;;;;;;;;5027665;28;20556;-51
2021/03/06 14:11:08;;;;;;;3.93;1.47;;;;;;;;;;5049304;28;20974;-52
2021/03/06 14:13:33;;;;;;;3.07;2.00;;;;;;;;;;5046924;28;20181;-49
2021/03/06 14:15:58;;;;;;;2.83;1.60;;;;;;;;;;5040038;28;20218;-51
2021/03/06 14:18:24;;;;;;;3.60;1.70;;;;;;;;;;5032023;28;20657;-54
2021/03/06 14:20:49;;;;;;;2.43;1.43;;;;;;;;;;5041304;28;20184;-51
2021/03/06 14:23:14;;;;;;;3.30;1.67;;;;;;;;;;5047589;28;20190;-51
2021/03/06 14:25:39;;;;;;;2.10;1.70;;;;;;;;;;5045881;28;20297;-51
2021/03/06 14:28:05;;;;;;;2.03;1.50;;;;;;;;;;5045873;28;20201;-49
2021/03/06 14:30:30;;;;;;;3.53;1.60;;;;;;;;;;5049004;28;20613;-52
2021/03/06 14:32:55;;;;;;;2.33;1.40;;;;;;;;;;5025656;28;20194;-49
2021/03/06 14:35:21;;;;;;;2.00;1.50;;;;;;;;;;5044718;28;20649;-51
2021/03/06 14:37:46;;;;;;;6.23;2.10;;;;;;;;;;5043786;28;20232;-52
2021/03/06 14:40:12;;;;;;;2.77;1.50;;;;;;;;;;5046061;28;20642;-50
2021/03/06 14:42:37;;;;;;;2.97;2.00;;;;;;;;;;5045181;28;20197;-50
2021/03/06 14:45:04;;;;;;;2.60;1.83;;;;;;;;;;5046677;28;20720;-52
2021/03/06 14:47:29;;;;;;;4.17;2.60;;;;;;;;;;5049808;28;20186;-50
2021/03/06 14:49:54;;;;;;;6.20;2.40;;;;;;;;;;5051880;28;20221;-53